Intervale, NH (03845)

8:08 PM EDT on August 30, 2016 (GMT -0400)
Pine Street, North Conway, NH | | Change Station

Elev 534 ft 44.06 °N, 71.13 °W | Updated 5 seconds ago

Clear
Clear
64.4 °F
Feels Like 64.4 °F
N
0.0
Wind Variable Wind from NNE
Gusts 1.0 mph

Today
High -- | Low -- °F
--% Chance of Precip.
Yesterday
High -- | Low -- °F
Precip. -- in
Pressure 30.04 in
Visibility 10.0 miles
Clouds Clear
Dew Point 57 °F
Humidity 78%
Rainfall 0.00 in
Snow Depth Not available.
6:05 AM 7:23 PM
Waning Crescent, 2% visible
METAR KIZG 302354Z AUTO 27003KT 10SM CLR 18/16 A3004 RMK AO2 SLP172 T01830156 10272 20183 52000
Pressure 30.04 in
Visibility 10.0 miles
Clouds Clear
Dew Point 57 °F
Humidity 78%
Rainfall 0.00 in
Snow Depth Not available.
6:05 AM 7:23 PM
Waning Crescent, 2% visible
METAR KIZG 302354Z AUTO 27003KT 10SM CLR 18/16 A3004 RMK AO2 SLP172 T01830156 10272 20183 52000

10-Day Weather Forecast

Almanac

Astronomy

Aug. 30, 2016 Rise Set
Actual Time
Civil Twilight
Nautical Twilight
Astronomical Twilight
Moon
Length of Visible Light
Length of Day
Tomorrow will be .
, % of the Moon is Illuminated

Today's Extremes

State Highs State Lows

Community

WunderPhotos

Upload Photos

1,935,958 photos uploaded!

WunderBlog® & News

Nearby

Air Quality

  Air Quality AQ Index Pollutant
Not available.

Snow Depth

Station Depth Elevation

Earthquake Activity

City Distance Mag. Time & Date
Minimum magnitude displayed is 2.5.

Coastal Water Temperatures

Place Temperature

Stations

Nearby Weather Stations

Station Location Temp. Windchill Dew Point Humidity Wind Precip. Elev Updated Type
                   

Watches & Warnings

There are currently no watches in effect.